sensor_id;sensor_type;location;lat;lon;timestamp;pressure;altitude;pressure_sealevel;temperature;humidity
17855;BME280;9053;53.358;6.382;2023-02-20T00:02:17;102089.41;;;7.23;100.00
17855;BME280;9053;53.358;6.382;2023-02-20T00:04:49;102086.78;;;7.23;100.00
17855;BME280;9053;53.358;6.382;2023-02-20T00:07:19;102078.03;;;7.22;100.00
17855;BME280;9053;53.358;6.382;2023-02-20T00:09:49;102065.06;;;7.24;100.00
17855;BME280;9053;53.358;6.382;2023-02-20T00:12:19;102059.91;;;7.25;100.00
17855;BME280;9053;53.358;6.382;2023-02-20T00:14:49;102046.22;;;7.29;100.00
17855;BME280;9053;53.358;6.382;2023-02-20T00:17:19;102034.16;;;7.31;100.00
17855;BME280;9053;53.358;6.382;2023-02-20T00:19:51;102035.19;;;7.33;100.00
17855;BME280;9053;53.358;6.382;2023-02-20T00:22:21;102019.47;;;7.33;100.00
17855;BME280;9053;53.358;6.382;2023-02-20T00:24:51;102010.09;;;7.37;100.00
17855;BME280;9053;53.358;6.382;2023-02-20T00:27:21;102024.19;;;7.39;100.00
17855;BME280;9053;53.358;6.382;2023-02-20T00:29:51;102024.28;;;7.41;100.00
17855;BME280;9053;53.358;6.382;2023-02-20T00:32:20;102019.28;;;7.44;100.00
17855;BME280;9053;53.358;6.382;2023-02-20T00:34:53;102010.72;;;7.46;100.00
17855;BME280;9053;53.358;6.382;2023-02-20T00:37:23;102003.84;;;7.48;100.00
17855;BME280;9053;53.358;6.382;2023-02-20T00:39:52;101999.59;;;7.50;100.00
17855;BME280;9053;53.358;6.382;2023-02-20T00:42:22;102019.75;;;7.51;100.00
17855;BME280;9053;53.358;6.382;2023-02-20T00:44:52;102004.06;;;7.51;100.00
17855;BME280;9053;53.358;6.382;2023-02-20T00:47:22;101998.81;;;7.51;100.00
17855;BME280;9053;53.358;6.382;2023-02-20T00:49:54;102009.59;;;7.56;100.00
17855;BME280;9053;53.358;6.382;2023-02-20T00:52:24;102011.50;;;7.58;100.00
17855;BME280;9053;53.358;6.382;2023-02-20T00:54:54;101999.41;;;7.61;100.00
17855;BME280;9053;53.358;6.382;2023-02-20T00:57:24;101999.63;;;7.64;100.00
17855;BME280;9053;53.358;6.382;2023-02-20T00:59:54;101985.69;;;7.65;100.00
17855;BME280;9053;53.358;6.382;2023-02-20T01:02:23;101977.13;;;7.67;100.00
17855;BME280;9053;53.358;6.382;2023-02-20T01:04:56;101978.94;;;7.68;100.00
17855;BME280;9053;53.358;6.382;2023-02-20T01:07:26;101983.38;;;7.69;100.00
17855;BME280;9053;53.358;6.382;2023-02-20T01:09:55;101979.16;;;7.71;100.00
17855;BME280;9053;53.358;6.382;2023-02-20T01:12:25;101989.72;;;7.73;100.00
17855;BME280;9053;53.358;6.382;2023-02-20T01:14:55;101970.59;;;7.74;100.00
17855;BME280;9053;53.358;6.382;2023-02-20T01:17:25;101966.31;;;7.76;100.00
17855;BME280;9053;53.358;6.382;2023-02-20T01:19:57;101967.34;;;7.78;100.00
17855;BME280;9053;53.358;6.382;2023-02-20T01:22:27;101962.09;;;7.78;100.00
17855;BME280;9053;53.358;6.382;2023-02-20T01:24:57;101941.06;;;7.76;100.00
17855;BME280;9053;53.358;6.382;2023-02-20T01:27:27;101930.47;;;7.75;100.00
17855;BME280;9053;53.358;6.382;2023-02-20T01:29:56;101932.28;;;7.76;100.00
17855;BME280;9053;53.358;6.382;2023-02-20T01:32:26;101926.16;;;7.75;100.00
17855;BME280;9053;53.358;6.382;2023-02-20T01:34:59;101927.97;;;7.76;100.00
17855;BME280;9053;53.358;6.382;2023-02-20T01:37:28;101928.75;;;7.75;100.00
17855;BME280;9053;53.358;6.382;2023-02-20T01:39:58;101918.41;;;7.77;100.00
17855;BME280;9053;53.358;6.382;2023-02-20T01:42:30;101921.00;;;7.77;100.00
17855;BME280;9053;53.358;6.382;2023-02-20T01:45:30;101906.38;;;7.80;100.00
17855;BME280;9053;53.358;6.382;2023-02-20T01:48:01;101906.31;;;7.79;100.00
17855;BME280;9053;53.358;6.382;2023-02-20T01:50:37;101890.59;;;7.79;100.00
17855;BME280;9053;53.358;6.382;2023-02-20T01:53:11;101874.97;;;7.80;100.00
17855;BME280;9053;53.358;6.382;2023-02-20T01:55:44;101868.00;;;7.81;100.00
17855;BME280;9053;53.358;6.382;2023-02-20T01:58:19;101867.91;;;7.79;100.00
17855;BME280;9053;53.358;6.382;2023-02-20T02:00:50;101877.50;;;7.79;100.00
17855;BME280;9053;53.358;6.382;2023-02-20T02:03:22;101868.81;;;7.80;100.00
17855;BME280;9053;53.358;6.382;2023-02-20T02:05:59;101873.22;;;7.81;100.00
17855;BME280;9053;53.358;6.382;2023-02-20T02:08:30;101875.97;;;7.83;100.00
17855;BME280;9053;53.358;6.382;2023-02-20T02:11:02;101875.06;;;7.82;100.00
17855;BME280;9053;53.358;6.382;2023-02-20T02:13:34;101880.38;;;7.84;100.00
17855;BME280;9053;53.358;6.382;2023-02-20T02:16:12;101871.84;;;7.86;100.00
17855;BME280;9053;53.358;6.382;2023-02-20T02:18:52;101867.50;;;7.87;100.00
17855;BME280;9053;53.358;6.382;2023-02-20T02:30:50;101861.91;;;7.95;100.00
17855;BME280;9053;53.358;6.382;2023-02-20T02:33:44;101855.75;;;7.95;100.00
17855;BME280;9053;53.358;6.382;2023-02-20T02:39:37;101853.25;;;7.96;100.00
17855;BME280;9053;53.358;6.382;2023-02-20T02:42:17;101850.63;;;7.96;100.00
17855;BME280;9053;53.358;6.382;2023-02-20T02:44:54;101826.13;;;7.96;100.00
17855;BME280;9053;53.358;6.382;2023-02-20T02:47:29;101816.56;;;7.96;100.00
17855;BME280;9053;53.358;6.382;2023-02-20T02:50:06;101833.25;;;7.98;100.00
17855;BME280;9053;53.358;6.382;2023-02-20T02:52:39;101834.19;;;7.99;100.00
17855;BME280;9053;53.358;6.382;2023-02-20T02:55:27;101822.88;;;8.00;100.00
17855;BME280;9053;53.358;6.382;2023-02-20T02:57:57;101825.59;;;8.01;100.00
17855;BME280;9053;53.358;6.382;2023-02-20T03:00:29;101804.53;;;8.00;100.00
17855;BME280;9053;53.358;6.382;2023-02-20T03:03:06;101794.06;;;8.00;100.00
17855;BME280;9053;53.358;6.382;2023-02-20T03:05:41;101800.13;;;7.99;100.00
17855;BME280;9053;53.358;6.382;2023-02-20T03:08:22;101793.97;;;7.98;100.00
17855;BME280;9053;53.358;6.382;2023-02-20T03:11:04;101794.16;;;8.01;100.00
17855;BME280;9053;53.358;6.382;2023-02-20T03:13:37;101788.00;;;8.01;100.00
17855;BME280;9053;53.358;6.382;2023-02-20T03:16:26;101790.72;;;8.02;100.00
17855;BME280;9053;53.358;6.382;2023-02-20T03:19:01;101787.22;;;8.02;100.00
17855;BME280;9053;53.358;6.382;2023-02-20T03:21:34;101798.47;;;8.01;100.00
17855;BME280;9053;53.358;6.382;2023-02-20T03:24:05;101787.09;;;8.00;100.00
17855;BME280;9053;53.358;6.382;2023-02-20T03:26:41;101762.72;;;8.01;100.00
17855;BME280;9053;53.358;6.382;2023-02-20T03:29:13;101772.28;;;8.01;100.00
17855;BME280;9053;53.358;6.382;2023-02-20T03:31:47;101779.34;;;8.02;100.00
17855;BME280;9053;53.358;6.382;2023-02-20T03:34:31;101776.44;;;7.97;100.00
17855;BME280;9053;53.358;6.382;2023-02-20T03:37:18;101773.94;;;7.99;100.00
17855;BME280;9053;53.358;6.382;2023-02-20T03:40:05;101786.09;;;7.98;100.00
17855;BME280;9053;53.358;6.382;2023-02-20T03:42:57;101783.59;;;8.00;100.00
17855;BME280;9053;53.358;6.382;2023-02-20T03:45:41;101773.94;;;7.99;100.00
17855;BME280;9053;53.358;6.382;2023-02-20T03:48:17;101770.50;;;8.00;100.00
17855;BME280;9053;53.358;6.382;2023-02-20T03:50:48;101768.69;;;7.99;100.00
17855;BME280;9053;53.358;6.382;2023-02-20T03:53:18;101771.38;;;8.00;100.00
17855;BME280;9053;53.358;6.382;2023-02-20T03:55:46;101761.81;;;8.01;100.00
17855;BME280;9053;53.358;6.382;2023-02-20T03:58:22;101774.09;;;8.02;100.00
17855;BME280;9053;53.358;6.382;2023-02-20T04:00:55;101762.72;;;8.01;100.00
17855;BME280;9053;53.358;6.382;2023-02-20T04:03:32;101773.22;;;8.01;100.00
17855;BME280;9053;53.358;6.382;2023-02-20T04:06:06;101773.22;;;8.01;100.00
17855;BME280;9053;53.358;6.382;2023-02-20T04:08:41;101750.53;;;8.02;100.00
17855;BME280;9053;53.358;6.382;2023-02-20T04:11:18;101750.59;;;8.03;100.00
17855;BME280;9053;53.358;6.382;2023-02-20T04:13:54;101758.47;;;8.03;100.00
17855;BME280;9053;53.358;6.382;2023-02-20T04:16:24;101733.19;;;8.04;100.00
17855;BME280;9053;53.358;6.382;2023-02-20T04:18:54;101742.00;;;8.06;100.00
17855;BME280;9053;53.358;6.382;2023-02-20T04:21:30;101743.00;;;8.08;100.00
17855;BME280;9053;53.358;6.382;2023-02-20T04:24:03;101736.88;;;8.08;100.00
17855;BME280;9053;53.358;6.382;2023-02-20T04:26:35;101732.53;;;8.08;100.00
17855;BME280;9053;53.358;6.382;2023-02-20T04:29:08;101730.75;;;8.07;100.00
17855;BME280;9053;53.358;6.382;2023-02-20T04:31:38;101721.88;;;8.05;100.00
17855;BME280;9053;53.358;6.382;2023-02-20T04:34:08;101727.13;;;8.05;100.00
17855;BME280;9053;53.358;6.382;2023-02-20T04:36:38;101718.25;;;8.03;100.00
17855;BME280;9053;53.358;6.382;2023-02-20T04:39:08;101717.38;;;8.02;100.00
17855;BME280;9053;53.358;6.382;2023-02-20T04:41:37;101709.50;;;8.02;100.00
17855;BME280;9053;53.358;6.382;2023-02-20T04:44:10;101718.25;;;8.03;100.00
17855;BME280;9053;53.358;6.382;2023-02-20T04:46:52;101705.09;;;8.01;100.00
17855;BME280;9053;53.358;6.382;2023-02-20T04:49:22;101705.91;;;8.00;100.00
17855;BME280;9053;53.358;6.382;2023-02-20T04:51:52;101706.00;;;8.02;100.00
17855;BME280;9053;53.358;6.382;2023-02-20T04:54:22;101707.63;;;8.00;100.00
17855;BME280;9053;53.358;6.382;2023-02-20T04:56:52;101700.75;;;8.02;100.00
17855;BME280;9053;53.358;6.382;2023-02-20T04:59:24;101705.09;;;8.01;100.00
17855;BME280;9053;53.358;6.382;2023-02-20T05:01:54;101695.50;;;8.02;100.00
17855;BME280;9053;53.358;6.382;2023-02-20T05:04:27;101686.75;;;8.01;100.00
17855;BME280;9053;53.358;6.382;2023-02-20T05:06:57;101688.56;;;8.02;100.00
17855;BME280;9053;53.358;6.382;2023-02-20T05:09:27;101686.81;;;8.03;100.00
17855;BME280;9053;53.358;6.382;2023-02-20T05:11:57;101676.28;;;8.01;100.00
17855;BME280;9053;53.358;6.382;2023-02-20T05:14:30;101679.78;;;8.02;100.00
17855;BME280;9053;53.358;6.382;2023-02-20T05:17:00;101680.59;;;8.01;100.00
17855;BME280;9053;53.358;6.382;2023-02-20T05:19:29;101680.69;;;8.02;100.00
17855;BME280;9053;53.358;6.382;2023-02-20T05:21:59;101685.94;;;8.02;100.00
17855;BME280;9053;53.358;6.382;2023-02-20T05:24:42;101678.06;;;8.02;100.00
17855;BME280;9053;53.358;6.382;2023-02-20T05:27:12;101679.88;;;8.03;100.00
17855;BME280;9053;53.358;6.382;2023-02-20T05:29:47;101665.88;;;8.03;100.00
17855;BME280;9053;53.358;6.382;2023-02-20T05:32:18;101669.31;;;8.02;100.00
17855;BME280;9053;53.358;6.382;2023-02-20T05:34:49;101670.06;;;7.99;100.00
17855;BME280;9053;53.358;6.382;2023-02-20T05:37:20;101677.97;;;8.01;100.00
17855;BME280;9053;53.358;6.382;2023-02-20T05:39:50;101683.22;;;8.01;100.00
17855;BME280;9053;53.358;6.382;2023-02-20T05:42:21;101686.66;;;8.00;100.00
17855;BME280;9053;53.358;6.382;2023-02-20T05:44:53;101679.78;;;8.02;100.00
17855;BME280;9053;53.358;6.382;2023-02-20T05:47:23;101696.41;;;8.02;100.00
17855;BME280;9053;53.358;6.382;2023-02-20T05:49:53;101685.03;;;8.02;100.00
17855;BME280;9053;53.358;6.382;2023-02-20T05:52:23;101678.97;;;8.03;100.00
17855;BME280;9053;53.358;6.382;2023-02-20T05:54:53;101692.91;;;8.02;100.00
17855;BME280;9053;53.358;6.382;2023-02-20T05:57:22;101681.59;;;8.03;100.00
17855;BME280;9053;53.358;6.382;2023-02-20T05:59:55;101678.19;;;8.04;100.00
17855;BME280;9053;53.358;6.382;2023-02-20T06:02:24;101691.34;;;8.06;100.00
17855;BME280;9053;53.358;6.382;2023-02-20T06:04:54;101671.28;;;8.06;100.00
17855;BME280;9053;53.358;6.382;2023-02-20T06:07:24;101680.13;;;8.08;100.00
17855;BME280;9053;53.358;6.382;2023-02-20T06:09:54;101689.00;;;8.10;100.00
17855;BME280;9053;53.358;6.382;2023-02-20T06:12:24;101688.38;;;8.14;100.00
17855;BME280;9053;53.358;6.382;2023-02-20T06:14:56;101688.53;;;8.17;100.00
17855;BME280;9053;53.358;6.382;2023-02-20T06:17:26;101693.03;;;8.20;100.00
17855;BME280;9053;53.358;6.382;2023-02-20T06:19:56;101698.38;;;8.21;100.00
17855;BME280;9053;53.358;6.382;2023-02-20T06:22:26;101682.81;;;8.24;100.00
17855;BME280;9053;53.358;6.382;2023-02-20T06:24:56;101704.78;;;8.27;100.00
17855;BME280;9053;53.358;6.382;2023-02-20T06:27:26;101707.47;;;8.28;100.00
17855;BME280;9053;53.358;6.382;2023-02-20T06:29:58;101697.09;;;8.30;100.00
17855;BME280;9053;53.358;6.382;2023-02-20T06:32:28;101677.91;;;8.31;100.00
17855;BME280;9053;53.358;6.382;2023-02-20T06:34:58;101695.47;;;8.32;100.00
17855;BME280;9053;53.358;6.382;2023-02-20T06:37:28;101687.59;;;8.32;100.00
17855;BME280;9053;53.358;6.382;2023-02-20T06:40:03;101700.72;;;8.32;100.00
17855;BME280;9053;53.358;6.382;2023-02-20T06:42:34;101691.84;;;8.30;100.00
17855;BME280;9053;53.358;6.382;2023-02-20T06:45:06;101692.59;;;8.27;100.00
17855;BME280;9053;53.358;6.382;2023-02-20T06:47:40;101696.00;;;8.26;100.00
17855;BME280;9053;53.358;6.382;2023-02-20T06:50:10;101691.47;;;8.23;100.00
17855;BME280;9053;53.358;6.382;2023-02-20T06:52:40;101693.16;;;8.21;100.00
17855;BME280;9053;53.358;6.382;2023-02-20T06:55:10;101693.88;;;8.19;100.00
17855;BME280;9053;53.358;6.382;2023-02-20T06:57:42;101692.94;;;8.18;100.00
17855;BME280;9053;53.358;6.382;2023-02-20T07:00:16;101696.41;;;8.17;100.00
17855;BME280;9053;53.358;6.382;2023-02-20T07:03:58;101707.88;;;8.19;100.00
17855;BME280;9053;53.358;6.382;2023-02-20T07:06:28;101705.25;;;8.19;100.00
17855;BME280;9053;53.358;6.382;2023-02-20T07:08:59;101713.19;;;8.21;100.00
17855;BME280;9053;53.358;6.382;2023-02-20T07:11:29;101728.19;;;8.23;100.00
17855;BME280;9053;53.358;6.382;2023-02-20T07:13:59;101724.75;;;8.24;100.00
17855;BME280;9053;53.358;6.382;2023-02-20T07:16:29;101718.78;;;8.27;100.00
17855;BME280;9053;53.358;6.382;2023-02-20T07:19:02;101719.84;;;8.31;100.00
17855;BME280;9053;53.358;6.382;2023-02-20T07:21:34;101734.94;;;8.35;100.00
17855;BME280;9053;53.358;6.382;2023-02-20T07:24:08;101724.63;;;8.38;100.00
17855;BME280;9053;53.358;6.382;2023-02-20T07:26:43;101716.06;;;8.40;100.00
17855;BME280;9053;53.358;6.382;2023-02-20T07:29:14;101730.19;;;8.42;100.00
17855;BME280;9053;53.358;6.382;2023-02-20T07:31:44;101726.72;;;8.43;100.00
17855;BME280;9053;53.358;6.382;2023-02-20T07:34:16;101719.94;;;8.47;100.00
17855;BME280;9053;53.358;6.382;2023-02-20T07:36:55;101705.19;;;8.49;100.00
17855;BME280;9053;53.358;6.382;2023-02-20T07:39:27;101724.53;;;8.51;100.00
17855;BME280;9053;53.358;6.382;2023-02-20T07:41:58;101724.72;;;8.54;100.00
17855;BME280;9053;53.358;6.382;2023-02-20T07:44:28;101723.06;;;8.56;100.00
17855;BME280;9053;53.358;6.382;2023-02-20T07:46:58;101724.06;;;8.58;100.00
17855;BME280;9053;53.358;6.382;2023-02-20T07:49:31;101721.59;;;8.61;100.00
17855;BME280;9053;53.358;6.382;2023-02-20T07:52:01;101710.38;;;8.64;100.00
17855;BME280;9053;53.358;6.382;2023-02-20T07:54:32;101713.09;;;8.65;100.00
17855;BME280;9053;53.358;6.382;2023-02-20T07:57:02;101706.13;;;8.66;100.00
17855;BME280;9053;53.358;6.382;2023-02-20T07:59:32;101706.22;;;8.68;100.00
17855;BME280;9053;53.358;6.382;2023-02-20T08:02:02;101713.38;;;8.70;100.00
17855;BME280;9053;53.358;6.382;2023-02-20T08:04:35;101709.91;;;8.71;100.00
17855;BME280;9053;53.358;6.382;2023-02-20T08:07:05;101716.16;;;8.73;100.00
17855;BME280;9053;53.358;6.382;2023-02-20T08:09:35;101704.81;;;8.74;100.00
17855;BME280;9053;53.358;6.382;2023-02-20T08:12:07;101710.34;;;8.79;100.00
17855;BME280;9053;53.358;6.382;2023-02-20T08:14:37;101701.66;;;8.80;100.00
17855;BME280;9053;53.358;6.382;2023-02-20T08:17:09;101700.00;;;8.82;100.00
17855;BME280;9053;53.358;6.382;2023-02-20T08:19:44;101701.00;;;8.84;100.00
17855;BME280;9053;53.358;6.382;2023-02-20T08:22:14;101700.34;;;8.88;100.00
17855;BME280;9053;53.358;6.382;2023-02-20T08:24:44;101694.28;;;8.89;100.00
17855;BME280;9053;53.358;6.382;2023-02-20T08:27:17;101682.16;;;8.91;100.00
17855;BME280;9053;53.358;6.382;2023-02-20T08:29:47;101685.75;;;8.93;100.00
17855;BME280;9053;53.358;6.382;2023-02-20T08:32:17;101685.75;;;8.93;100.00
17855;BME280;9053;53.358;6.382;2023-02-20T08:35:07;101675.44;;;8.96;100.00
17855;BME280;9053;53.358;6.382;2023-02-20T08:37:37;101677.31;;;8.99;100.00
17855;BME280;9053;53.358;6.382;2023-02-20T08:40:08;101680.09;;;9.02;100.00
17855;BME280;9053;53.358;6.382;2023-02-20T08:42:42;101688.94;;;9.04;100.00
17855;BME280;9053;53.358;6.382;2023-02-20T08:45:16;101690.94;;;9.08;100.00
17855;BME280;9053;53.358;6.382;2023-02-20T08:47:50;101682.31;;;9.10;100.00
17855;BME280;9053;53.358;6.382;2023-02-20T08:50:26;101701.84;;;9.16;100.00
17855;BME280;9053;53.358;6.382;2023-02-20T08:52:58;101692.38;;;9.19;100.00
17855;BME280;9053;53.358;6.382;2023-02-20T08:55:28;101689.03;;;9.22;100.00
17855;BME280;9053;53.358;6.382;2023-02-20T08:58:00;101672.47;;;9.23;100.00
17855;BME280;9053;53.358;6.382;2023-02-20T09:00:30;101681.34;;;9.25;100.00
17855;BME280;9053;53.358;6.382;2023-02-20T09:03:00;101684.91;;;9.27;100.00
17855;BME280;9053;53.358;6.382;2023-02-20T09:05:40;101688.53;;;9.29;100.00
17855;BME280;9053;53.358;6.382;2023-02-20T09:08:17;101678.91;;;9.29;100.00
17855;BME280;9053;53.358;6.382;2023-02-20T09:10:49;101688.69;;;9.32;100.00
17855;BME280;9053;53.358;6.382;2023-02-20T09:13:19;101699.28;;;9.34;100.00
17855;BME280;9053;53.358;6.382;2023-02-20T09:15:51;101687.19;;;9.37;100.00
17855;BME280;9053;53.358;6.382;2023-02-20T09:18:21;101700.31;;;9.37;100.00
17855;BME280;9053;53.358;6.382;2023-02-20T09:20:56;101697.69;;;9.37;100.00
17855;BME280;9053;53.358;6.382;2023-02-20T09:23:26;101685.56;;;9.39;100.00
17855;BME280;9053;53.358;6.382;2023-02-20T09:25:56;101688.19;;;9.39;100.00
17855;BME280;9053;53.358;6.382;2023-02-20T09:28:26;101685.56;;;9.39;100.00
17855;BME280;9053;53.358;6.382;2023-02-20T09:30:59;101686.44;;;9.40;100.00
17855;BME280;9053;53.358;6.382;2023-02-20T09:33:29;101687.44;;;9.42;100.00
17855;BME280;9053;53.358;6.382;2023-02-20T09:36:08;101686.53;;;9.41;100.00
17855;BME280;9053;53.358;6.382;2023-02-20T09:38:40;101687.38;;;9.40;100.00
17855;BME280;9053;53.358;6.382;2023-02-20T09:41:21;101690.91;;;9.41;100.00
17855;BME280;9053;53.358;6.382;2023-02-20T09:44:06;101689.25;;;9.43;100.00
17855;BME280;9053;53.358;6.382;2023-02-20T09:46:42;101676.19;;;9.44;100.00
17855;BME280;9053;53.358;6.382;2023-02-20T09:49:15;101679.72;;;9.45;100.00
17855;BME280;9053;53.358;6.382;2023-02-20T09:51:54;101697.34;;;9.47;100.00
17855;BME280;9053;53.358;6.382;2023-02-20T09:54:28;101683.31;;;9.47;100.00
17855;BME280;9053;53.358;6.382;2023-02-20T09:57:01;101663.31;;;9.49;100.00
17855;BME280;9053;53.358;6.382;2023-02-20T09:59:37;101669.41;;;9.48;100.00
17855;BME280;9053;53.358;6.382;2023-02-20T10:02:14;101672.19;;;9.51;100.00
17855;BME280;9053;53.358;6.382;2023-02-20T10:04:49;101682.59;;;9.49;100.00
17855;BME280;9053;53.358;6.382;2023-02-20T10:07:32;101713.28;;;9.50;100.00
17855;BME280;9053;53.358;6.382;2023-02-20T10:10:16;101708.19;;;9.53;100.00
17855;BME280;9053;53.358;6.382;2023-02-20T10:12:58;101688.16;;;9.56;100.00
17855;BME280;9053;53.358;6.382;2023-02-20T10:15:39;101659.34;;;9.57;100.00
17855;BME280;9053;53.358;6.382;2023-02-20T10:18:19;101654.19;;;9.59;100.00
17855;BME280;9053;53.358;6.382;2023-02-20T10:20:57;101691.09;;;9.62;100.00
17855;BME280;9053;53.358;6.382;2023-02-20T10:23:40;101689.56;;;9.65;100.00
17855;BME280;9053;53.358;6.382;2023-02-20T10:26:34;101696.69;;;9.68;100.00
17855;BME280;9053;53.358;6.382;2023-02-20T10:29:15;101691.56;;;9.71;100.00
17855;BME280;9053;53.358;6.382;2023-02-20T10:31:50;101683.69;;;9.71;100.00
17855;BME280;9053;53.358;6.382;2023-02-20T10:34:24;101689.09;;;9.74;100.00
17855;BME280;9053;53.358;6.382;2023-02-20T10:37:07;101695.34;;;9.76;100.00
17855;BME280;9053;53.358;6.382;2023-02-20T10:39:46;101698.84;;;9.77;100.00
17855;BME280;9053;53.358;6.382;2023-02-20T10:42:26;101713.97;;;9.81;100.00
17855;BME280;9053;53.358;6.382;2023-02-20T10:45:07;101689.47;;;9.82;100.00
17855;BME280;9053;53.358;6.382;2023-02-20T10:47:44;101693.09;;;9.84;100.00
17855;BME280;9053;53.358;6.382;2023-02-20T10:50:19;101692.44;;;9.88;100.00
17855;BME280;9053;53.358;6.382;2023-02-20T10:52:58;101682.88;;;9.90;100.00
17855;BME280;9053;53.358;6.382;2023-02-20T10:55:35;101682.97;;;9.91;100.00
17855;BME280;9053;53.358;6.382;2023-02-20T10:58:13;101690.19;;;9.95;100.00
17855;BME280;9053;53.358;6.382;2023-02-20T11:00:51;101698.22;;;9.99;100.00
17855;BME280;9053;53.358;6.382;2023-02-20T11:03:27;101686.13;;;10.02;100.00
17855;BME280;9053;53.358;6.382;2023-02-20T11:06:01;101694.16;;;10.05;100.00
17855;BME280;9053;53.358;6.382;2023-02-20T11:08:34;101689.13;;;10.10;100.00
17855;BME280;9053;53.358;6.382;2023-02-20T11:11:20;101689.34;;;10.14;100.00
17855;BME280;9053;53.358;6.382;2023-02-20T11:13:50;101679.72;;;10.15;100.00
17855;BME280;9053;53.358;6.382;2023-02-20T11:16:23;101697.38;;;10.17;100.00
17855;BME280;9053;53.358;6.382;2023-02-20T11:19:05;101690.56;;;10.21;100.00
17855;BME280;9053;53.358;6.382;2023-02-20T11:21:38;101696.81;;;10.23;100.00
17855;BME280;9053;53.358;6.382;2023-02-20T11:24:31;101697.97;;;10.28;100.00
17855;BME280;9053;53.358;6.382;2023-02-20T11:27:09;101706.00;;;10.31;100.00
17855;BME280;9053;53.358;6.382;2023-02-20T11:29:46;101710.50;;;10.34;100.00
17855;BME280;9053;53.358;6.382;2023-02-20T11:32:27;101695.63;;;10.34;100.00
17855;BME280;9053;53.358;6.382;2023-02-20T11:35:13;101674.72;;;10.37;100.00
17855;BME280;9053;53.358;6.382;2023-02-20T11:37:46;101675.63;;;10.38;100.00
17855;BME280;9053;53.358;6.382;2023-02-20T11:40:26;101670.59;;;10.43;100.00
17855;BME280;9053;53.358;6.382;2023-02-20T11:43:09;101680.28;;;10.44;100.00
17855;BME280;9053;53.358;6.382;2023-02-20T11:45:42;101672.41;;;10.44;100.00
17855;BME280;9053;53.358;6.382;2023-02-20T11:48:13;101684.78;;;10.46;100.00
17855;BME280;9053;53.358;6.382;2023-02-20T11:50:47;101682.22;;;10.48;100.00
17855;BME280;9053;53.358;6.382;2023-02-20T11:53:21;101687.66;;;10.51;100.00
17855;BME280;9053;53.358;6.382;2023-02-20T11:56:07;101697.47;;;10.55;100.00
17855;BME280;9053;53.358;6.382;2023-02-20T11:58:41;101685.22;;;10.55;100.00
17855;BME280;9053;53.358;6.382;2023-02-20T12:01:27;101687.94;;;10.57;100.00
17855;BME280;9053;53.358;6.382;2023-02-20T12:03:59;101688.81;;;10.57;100.00
17855;BME280;9053;53.358;6.382;2023-02-20T12:06:41;101679.19;;;10.58;100.00
17855;BME280;9053;53.358;6.382;2023-02-20T12:09:23;101671.38;;;10.59;100.00
17855;BME280;9053;53.358;6.382;2023-02-20T12:11:55;101665.22;;;10.59;100.00
17855;BME280;9053;53.358;6.382;2023-02-20T12:14:31;101649.50;;;10.60;100.00
17855;BME280;9053;53.358;6.382;2023-02-20T12:17:12;101657.56;;;10.64;100.00
17855;BME280;9053;53.358;6.382;2023-02-20T12:19:52;101634.91;;;10.67;100.00
17855;BME280;9053;53.358;6.382;2023-02-20T12:22:31;101628.91;;;10.70;100.00
17855;BME280;9053;53.358;6.382;2023-02-20T12:25:13;101641.41;;;10.75;100.00
17855;BME280;9053;53.358;6.382;2023-02-20T12:27:56;101648.63;;;10.79;100.00
17855;BME280;9053;53.358;6.382;2023-02-20T12:30:43;101636.59;;;10.85;100.00
17855;BME280;9053;53.358;6.382;2023-02-20T12:33:43;101653.34;;;10.87;100.00
17855;BME280;9053;53.358;6.382;2023-02-20T12:36:30;101643.81;;;10.89;100.00
17855;BME280;9053;53.358;6.382;2023-02-20T12:39:07;101642.97;;;10.90;100.00
17855;BME280;9053;53.358;6.382;2023-02-20T12:42:05;101647.53;;;10.94;100.00
17855;BME280;9053;53.358;6.382;2023-02-20T12:45:00;101651.88;;;10.93;100.00
17855;BME280;9053;53.358;6.382;2023-02-20T12:47:36;101629.13;;;10.94;100.00
17855;BME280;9053;53.358;6.382;2023-02-20T12:50:18;101612.47;;;10.95;100.00
17855;BME280;9053;53.358;6.382;2023-02-20T12:56:08;101611.72;;;10.97;100.00
17855;BME280;9053;53.358;6.382;2023-02-20T12:58:50;101605.69;;;11.00;100.00
17855;BME280;9053;53.358;6.382;2023-02-20T13:01:24;101634.78;;;11.03;100.00
17855;BME280;9053;53.358;6.382;2023-02-20T13:04:21;101622.66;;;11.07;100.00
17855;BME280;9053;53.358;6.382;2023-02-20T13:07:02;101594.72;;;11.10;100.00
17855;BME280;9053;53.358;6.382;2023-02-20T13:09:38;101621.19;;;11.13;100.00
17855;BME280;9053;53.358;6.382;2023-02-20T13:12:13;101634.44;;;11.15;100.00
17855;BME280;9053;53.358;6.382;2023-02-20T13:14:54;101637.19;;;11.18;100.00
17855;BME280;9053;53.358;6.382;2023-02-20T13:17:38;101627.72;;;11.21;100.00
17855;BME280;9053;53.358;6.382;2023-02-20T13:20:18;101612.84;;;11.23;100.00
17855;BME280;9053;53.358;6.382;2023-02-20T13:25:52;101611.31;;;11.29;100.00
17855;BME280;9053;53.358;6.382;2023-02-20T13:28:38;101625.44;;;11.31;100.00
17855;BME280;9053;53.358;6.382;2023-02-20T13:31:18;101615.03;;;11.34;100.00
17855;BME280;9053;53.358;6.382;2023-02-20T13:33:51;101634.44;;;11.36;100.00
17855;BME280;9053;53.358;6.382;2023-02-20T13:36:52;101621.41;;;11.39;100.00
17855;BME280;9053;53.358;6.382;2023-02-20T13:42:32;101609.22;;;11.41;100.00
17855;BME280;9053;53.358;6.382;2023-02-20T13:48:17;101608.31;;;11.40;100.00
17855;BME280;9053;53.358;6.382;2023-02-20T13:50:47;101621.56;;;11.42;100.00
17855;BME280;9053;53.358;6.382;2023-02-20T13:53:19;101594.38;;;11.43;100.00
17855;BME280;9053;53.358;6.382;2023-02-20T13:55:49;101622.59;;;11.45;100.00
17855;BME280;9053;53.358;6.382;2023-02-20T13:58:21;101606.91;;;11.48;100.00
17855;BME280;9053;53.358;6.382;2023-02-20T14:00:53;101599.06;;;11.50;100.00
17855;BME280;9053;53.358;6.382;2023-02-20T14:03:25;101594.78;;;11.52;100.00